Albatros — DITX — position and weather

sailwx.info

Track history (hours):
 
Tides and Currents Weather Stations Pressure Air Temp Water Temp Dewpoint Dewpoint Depression Visibility Wind Speed Wind Dir Waves Ship Positions

Albatros

Last reported at 2014-Oct-06 11:08 UTC. Time now 2014-Oct-23 18:38 UTC.
Position N 54°31' E 013°10'.
Warning: this ship's position is 17 days out of date.

Length 16 m.

MMSI: 211226200.

Date/timePositionNaut miles runAvg speedWind from/ knotsBaromVisibWave heightAir tempDewpointWater temp
2014-Oct-06 11:08N 54°31' E 013°10'2 4.3
2014-Oct-06 10:33N 54°33' E 013°08'6 6.0
2014-Oct-06 09:33N 54°39' E 013°12'3 2.6
2014-Oct-06 08:33N 54°40' E 013°15'2 2.3
2014-Oct-06 07:34N 54°39' E 013°11'2 2.1
2014-Oct-06 06:34N 54°37' E 013°10'6 5.6
2014-Oct-06 05:33N 54°32' E 013°08'2 1.6
2014-Oct-06 04:34N 54°31' E 013°10'0 0.0
2014-Oct-05 13:31N 54°31' E 013°10'3 3.6
2014-Oct-05 12:33N 54°34' E 013°10'6 6.4
2014-Oct-05 11:33N 54°40' E 013°14'3 2.7
2014-Oct-05 10:33N 54°41' E 013°19'3 3.5
2014-Oct-05 09:33N 54°42' E 013°13'1 1.0
2014-Oct-05 08:33N 54°42' E 013°11'1 0.6
2014-Oct-05 07:33N 54°41' E 013°10'2 2.3
2014-Oct-05 06:33N 54°39' E 013°10'6 6.0
2014-Oct-05 05:33N 54°33' E 013°08'3 2.5
2014-Oct-05 04:33N 54°31' E 013°10'0 0.0
2014-Oct-04 13:21N 54°31' E 013°10'3 4.2
2014-Oct-04 12:33N 54°34' E 013°10'6 6.3
2014-Oct-04 11:33N 54°40' E 013°06'5 5.4
2014-Oct-04 10:33N 54°45' E 013°01'0 0.1
2014-Oct-04 09:30N 54°45' E 013°01'2 2.4
2014-Oct-04 08:28N 54°43' E 013°05'4 4.3
2014-Oct-04 07:33N 54°42' E 013°11'3 2.6
2014-Oct-04 06:33N 54°39' E 013°11'6 6.2
2014-Oct-04 05:33N 54°33' E 013°08'3 0.2
2014-Oct-03 13:33N 54°31' E 013°10'4 4.3
2014-Oct-03 12:33N 54°35' E 013°10'7 6.8
2014-Oct-03 11:33N 54°41' E 013°05'4 3.8
2014-Oct-03 10:29N 54°45' E 013°01'0 0.1
2014-Oct-03 09:33N 54°45' E 013°01'5 4.7
2014-Oct-03 08:32N 54°42' E 013°09'1 1.4
2014-Oct-03 07:33N 54°41' E 013°10'2 2.2
2014-Oct-03 06:33N 54°39' E 013°10'6 6.2
2014-Oct-03 05:33N 54°33' E 013°08'3 2.5
2014-Oct-03 04:33N 54°31' E 013°10'0 0.0
2014-Oct-02 13:34N 54°31' E 013°10'3 3.0
2014-Oct-02 12:34N 54°34' E 013°09'7 6.8
2014-Oct-02 11:34N 54°41' E 013°11'1 0.9
2014-Oct-02 10:33N 54°41' E 013°10'1 1.2
2014-Oct-02 09:34N 54°42' E 013°13'1 0.9
2014-Oct-02 08:33N 54°42' E 013°11'0 0.3
2014-Oct-02 07:33N 54°42' E 013°11'3 2.8
2014-Oct-02 06:33N 54°39' E 013°10'6 6.5
2014-Oct-02 05:34N 54°32' E 013°08'2 2.0
2014-Oct-02 04:34N 54°31' E 013°10'  
2014-Sep-28 13:25N 54°31' E 013°10'3 3.8
2014-Sep-28 12:33N 54°34' E 013°10'6 5.7
2014-Sep-28 11:33N 54°40' E 013°11'2 1.8
2014-Sep-28 10:33N 54°41' E 013°10'1 1.3
2014-Sep-28 09:32N 54°42' E 013°12'0 0.2
2014-Sep-28 08:33N 54°42' E 013°13'1 1.2
2014-Sep-28 07:33N 54°41' E 013°11'1 0.6
2014-Sep-28 06:31N 54°41' E 013°10'6 6.4
2014-Sep-28 05:33N 54°35' E 013°10'4 4.0
2014-Sep-28 04:33N 54°31' E 013°10'2 0.1
2014-Sep-27 07:33N 54°32' E 013°08'6 5.8
2014-Sep-27 06:33N 54°38' E 013°10'5 4.5
2014-Sep-27 05:33N 54°33' E 013°08'3 2.5
2014-Sep-27 04:33N 54°31' E 013°10'0 0.0
2014-Sep-26 13:33N 54°31' E 013°10'4 4.0
2014-Sep-26 12:33N 54°35' E 013°10'5 4.8
2014-Sep-26 11:33N 54°40' E 013°11'  
Track history (hours):
 
Tides and Currents Weather Stations Pressure Air Temp Water Temp Dewpoint Dewpoint Depression Visibility Wind Speed Wind Dir Waves Ship Positions

Albatros

Last reported at 2014-Oct-06 11:08 UTC. Time now 2014-Oct-23 18:38 UTC.
Position N 54°31' E 013°10'.
Warning: this ship's position is 17 days out of date.

Length 16 m.

MMSI: 211226200.

Date/timePositionNaut miles runAvg speedWind from/ knotsBaromVisibWave heightAir tempDewpointWater temp
2014-Oct-06 11:08N 54°31' E 013°10'2 4.3
2014-Oct-06 10:33N 54°33' E 013°08'6 6.0
2014-Oct-06 09:33N 54°39' E 013°12'3 2.6
2014-Oct-06 08:33N 54°40' E 013°15'2 2.3
2014-Oct-06 07:34N 54°39' E 013°11'2 2.1
2014-Oct-06 06:34N 54°37' E 013°10'6 5.6
2014-Oct-06 05:33N 54°32' E 013°08'2 1.6
2014-Oct-06 04:34N 54°31' E 013°10'0 0.0
2014-Oct-05 13:31N 54°31' E 013°10'3 3.6
2014-Oct-05 12:33N 54°34' E 013°10'6 6.4
2014-Oct-05 11:33N 54°40' E 013°14'3 2.7
2014-Oct-05 10:33N 54°41' E 013°19'3 3.5
2014-Oct-05 09:33N 54°42' E 013°13'1 1.0
2014-Oct-05 08:33N 54°42' E 013°11'1 0.6
2014-Oct-05 07:33N 54°41' E 013°10'2 2.3
2014-Oct-05 06:33N 54°39' E 013°10'6 6.0
2014-Oct-05 05:33N 54°33' E 013°08'3 2.5
2014-Oct-05 04:33N 54°31' E 013°10'0 0.0
2014-Oct-04 13:21N 54°31' E 013°10'3 4.2
2014-Oct-04 12:33N 54°34' E 013°10'6 6.3
2014-Oct-04 11:33N 54°40' E 013°06'5 5.4
2014-Oct-04 10:33N 54°45' E 013°01'0 0.1
2014-Oct-04 09:30N 54°45' E 013°01'2 2.4
2014-Oct-04 08:28N 54°43' E 013°05'4 4.3
2014-Oct-04 07:33N 54°42' E 013°11'3 2.6
2014-Oct-04 06:33N 54°39' E 013°11'6 6.2
2014-Oct-04 05:33N 54°33' E 013°08'3 0.2
2014-Oct-03 13:33N 54°31' E 013°10'4 4.3
2014-Oct-03 12:33N 54°35' E 013°10'7 6.8
2014-Oct-03 11:33N 54°41' E 013°05'4 3.8
2014-Oct-03 10:29N 54°45' E 013°01'0 0.1
2014-Oct-03 09:33N 54°45' E 013°01'5 4.7
2014-Oct-03 08:32N 54°42' E 013°09'1 1.4
2014-Oct-03 07:33N 54°41' E 013°10'2 2.2
2014-Oct-03 06:33N 54°39' E 013°10'6 6.2
2014-Oct-03 05:33N 54°33' E 013°08'3 2.5
2014-Oct-03 04:33N 54°31' E 013°10'0 0.0
2014-Oct-02 13:34N 54°31' E 013°10'3 3.0
2014-Oct-02 12:34N 54°34' E 013°09'7 6.8
2014-Oct-02 11:34N 54°41' E 013°11'1 0.9
2014-Oct-02 10:33N 54°41' E 013°10'1 1.2
2014-Oct-02 09:34N 54°42' E 013°13'1 0.9
2014-Oct-02 08:33N 54°42' E 013°11'0 0.3
2014-Oct-02 07:33N 54°42' E 013°11'3 2.8
2014-Oct-02 06:33N 54°39' E 013°10'6 6.5
2014-Oct-02 05:34N 54°32' E 013°08'2 2.0
2014-Oct-02 04:34N 54°31' E 013°10'  
2014-Sep-28 13:25N 54°31' E 013°10'3 3.8
2014-Sep-28 12:33N 54°34' E 013°10'6 5.7
2014-Sep-28 11:33N 54°40' E 013°11'2 1.8
2014-Sep-28 10:33N 54°41' E 013°10'1 1.3
2014-Sep-28 09:32N 54°42' E 013°12'0 0.2
2014-Sep-28 08:33N 54°42' E 013°13'1 1.2
2014-Sep-28 07:33N 54°41' E 013°11'1 0.6
2014-Sep-28 06:31N 54°41' E 013°10'6 6.4
2014-Sep-28 05:33N 54°35' E 013°10'4 4.0
2014-Sep-28 04:33N 54°31' E 013°10'2 0.1
2014-Sep-27 07:33N 54°32' E 013°08'6 5.8
2014-Sep-27 06:33N 54°38' E 013°10'5 4.5
2014-Sep-27 05:33N 54°33' E 013°08'3 2.5
2014-Sep-27 04:33N 54°31' E 013°10'0 0.0
2014-Sep-26 13:33N 54°31' E 013°10'4 4.0
2014-Sep-26 12:33N 54°35' E 013°10'5 4.8
2014-Sep-26 11:33N 54°40' E 013°11'  

Dump ship's entire track history